Aviation Digital Data Service (ADDS)

Output produced by METARs form (1440 UTC 22 April 2019)
found at http://www.aviationweather.gov/metar/data/
 
METAR text: OMAA 221400Z 22007KT CAVOK 39/08 Q1005 BECMG 28012KT
Conditions at: OMAA (ABU DHABI INTL , AE) observed 1400 UTC 22 April 2019
Temperature: 39.0°C (102°F)
Dewpoint: 8.0°C (46°F) [RH = 15%]
Pressure (altimeter): 29.68 inches Hg (1005.0 mb)
Winds: from the SW (220 degrees) at 8 MPH (7 knots; 3.6 m/s)
Visibility: 6 or more miles (10+ km)
Ceiling: ceiling and visibility are OK
Clouds: unknown
Weather: no significant weather observed at this time

METAR text: OMAA 221300Z 22009KT CAVOK 39/08 Q1005 BECMG 28012KT
Conditions at: OMAA (ABU DHABI INTL , AE) observed 1300 UTC 22 April 2019
Temperature: 39.0°C (102°F)
Dewpoint: 8.0°C (46°F) [RH = 15%]
Pressure (altimeter): 29.68 inches Hg (1005.0 mb)
Winds: from the SW (220 degrees) at 10 MPH (9 knots; 4.6 m/s)
Visibility: 6 or more miles (10+ km)
Ceiling: ceiling and visibility are OK
Clouds: unknown
Weather: no significant weather observed at this time

METAR text: OMAA 221200Z 22008KT CAVOK 40/08 Q1005 BECMG 28012KT
Conditions at: OMAA (ABU DHABI INTL , AE) observed 1200 UTC 22 April 2019
Temperature: 40.0°C (104°F)
Dewpoint: 8.0°C (46°F) [RH = 15%]
Pressure (altimeter): 29.68 inches Hg (1005.0 mb)
Winds: from the SW (220 degrees) at 9 MPH (8 knots; 4.1 m/s)
Visibility: 6 or more miles (10+ km)
Ceiling: ceiling and visibility are OK
Clouds: unknown
Weather: no significant weather observed at this time

METAR text: OMAA 221100Z 21009KT CAVOK 40/07 Q1005 BECMG 28012KT
Conditions at: OMAA (ABU DHABI INTL , AE) observed 1100 UTC 22 April 2019
Temperature: 40.0°C (104°F)
Dewpoint: 7.0°C (45°F) [RH = 14%]
Pressure (altimeter): 29.68 inches Hg (1005.0 mb)
Winds: from the SSW (210 degrees) at 10 MPH (9 knots; 4.6 m/s)
Visibility: 6 or more miles (10+ km)
Ceiling: ceiling and visibility are OK
Clouds: unknown
Weather: no significant weather observed at this time

METAR text: OMAA 221013Z 26008KT CAVOK 41/07 Q1006 NOSIG
Conditions at: OMAA (ABU DHABI INTL , AE) observed 1013 UTC 22 April 2019
Temperature: 41.0°C (106°F)
Dewpoint: 7.0°C (45°F) [RH = 13%]
Pressure (altimeter): 29.70 inches Hg (1006.0 mb)
Winds: from the W (260 degrees) at 9 MPH (8 knots; 4.1 m/s)
Visibility: 6 or more miles (10+ km)
Ceiling: ceiling and visibility are OK
Clouds: unknown
Weather: no significant weather observed at this time

METAR text: OMAA 221012Z 26008KT CAVOK 41/07 Q1006 NOSIG
Conditions at: OMAA (ABU DHABI INTL , AE) observed 1012 UTC 22 April 2019
Temperature: 41.0°C (106°F)
Dewpoint: 7.0°C (45°F) [RH = 13%]
Pressure (altimeter): 29.70 inches Hg (1006.0 mb)
Winds: from the W (260 degrees) at 9 MPH (8 knots; 4.1 m/s)
Visibility: 6 or more miles (10+ km)
Ceiling: ceiling and visibility are OK
Clouds: unknown
Weather: no significant weather observed at this time

METAR text: OMAA 221000Z 20011KT CAVOK 40/08 Q1006 NOSIG
Conditions at: OMAA (ABU DHABI INTL , AE) observed 1000 UTC 22 April 2019
Temperature: 40.0°C (104°F)
Dewpoint: 8.0°C (46°F) [RH = 15%]
Pressure (altimeter): 29.70 inches Hg (1006.0 mb)
Winds: from the SSW (200 degrees) at 13 MPH (11 knots; 5.7 m/s)
Visibility: 6 or more miles (10+ km)
Ceiling: ceiling and visibility are OK
Clouds: unknown
Weather: no significant weather observed at this time

METAR text: OMAA 220900Z 21011KT CAVOK 39/09 Q1006 NOSIG
Conditions at: OMAA (ABU DHABI INTL , AE) observed 0900 UTC 22 April 2019
Temperature: 39.0°C (102°F)
Dewpoint: 9.0°C (48°F) [RH = 16%]
Pressure (altimeter): 29.70 inches Hg (1006.0 mb)
Winds: from the SSW (210 degrees) at 13 MPH (11 knots; 5.7 m/s)
Visibility: 6 or more miles (10+ km)
Ceiling: ceiling and visibility are OK
Clouds: unknown
Weather: no significant weather observed at this time

METAR text: OMAA 220800Z 21010KT CAVOK 38/09 Q1007 NOSIG
Conditions at: OMAA (ABU DHABI INTL , AE) observed 0800 UTC 22 April 2019
Temperature: 38.0°C (100°F)
Dewpoint: 9.0°C (48°F) [RH = 17%]
Pressure (altimeter): 29.73 inches Hg (1007.0 mb)
Winds: from the SSW (210 degrees) at 12 MPH (10 knots; 5.1 m/s)
Visibility: 6 or more miles (10+ km)
Ceiling: ceiling and visibility are OK
Clouds: unknown
Weather: no significant weather observed at this time

METAR text: OMAA 220700Z 17011KT 8000 NSC 36/12 Q1008 NOSIG
Conditions at: OMAA (ABU DHABI INTL , AE) observed 0700 UTC 22 April 2019
Temperature: 36.0°C (97°F)
Dewpoint: 12.0°C (54°F) [RH = 24%]
Pressure (altimeter): 29.76 inches Hg (1008.0 mb)
Winds: from the S (170 degrees) at 13 MPH (11 knots; 5.7 m/s)
Visibility: 5 miles ( 8 km)
Ceiling: at least 12,000 feet AGL
Clouds: sky clear below 12,000 feet AGL
Weather: no significant weather observed at this time

METAR text: OMAA 220600Z 16013KT 6000 NSC 34/13 Q1008 TEMPO 4000 DU
Conditions at: OMAA (ABU DHABI INTL , AE) observed 0600 UTC 22 April 2019
Temperature: 34.0°C (93°F)
Dewpoint: 13.0°C (55°F) [RH = 28%]
Pressure (altimeter): 29.76 inches Hg (1008.0 mb)
Winds: from the SSE (160 degrees) at 15 MPH (13 knots; 6.7 m/s)
Visibility: 4 miles ( 6 km)
Ceiling: at least 12,000 feet AGL
Clouds: sky clear below 12,000 feet AGL
Weather: no significant weather observed at this time

METAR text: OMAA 220500Z 16012KT 6000 NSC 32/13 Q1008 TEMPO 4000 DU
Conditions at: OMAA (ABU DHABI INTL , AE) observed 0500 UTC 22 April 2019
Temperature: 32.0°C (90°F)
Dewpoint: 13.0°C (55°F) [RH = 32%]
Pressure (altimeter): 29.76 inches Hg (1008.0 mb)
Winds: from the SSE (160 degrees) at 14 MPH (12 knots; 6.2 m/s)
Visibility: 4 miles ( 6 km)
Ceiling: at least 12,000 feet AGL
Clouds: sky clear below 12,000 feet AGL
Weather: no significant weather observed at this time

METAR text: OMAA 220400Z 15011KT 7000 NSC 30/09 Q1008 NOSIG
Conditions at: OMAA (ABU DHABI INTL , AE) observed 0400 UTC 22 April 2019
Temperature: 30.0°C (86°F)
Dewpoint: 9.0°C (48°F) [RH = 27%]
Pressure (altimeter): 29.76 inches Hg (1008.0 mb)
Winds: from the SSE (150 degrees) at 13 MPH (11 knots; 5.7 m/s)
Visibility: 4 miles ( 7 km)
Ceiling: at least 12,000 feet AGL
Clouds: sky clear below 12,000 feet AGL
Weather: no significant weather observed at this time

METAR text: OMAA 220300Z 11006KT 8000 NSC 29/10 Q1007 NOSIG
Conditions at: OMAA (ABU DHABI INTL , AE) observed 0300 UTC 22 April 2019
Temperature: 29.0°C (84°F)
Dewpoint: 10.0°C (50°F) [RH = 31%]
Pressure (altimeter): 29.73 inches Hg (1007.0 mb)
Winds: from the ESE (110 degrees) at 7 MPH (6 knots; 3.1 m/s)
Visibility: 5 miles ( 8 km)
Ceiling: at least 12,000 feet AGL
Clouds: sky clear below 12,000 feet AGL
Weather: no significant weather observed at this time

METAR text: OMAA 220200Z 10002KT CAVOK 29/10 Q1005 BECMG 16012KT
Conditions at: OMAA (ABU DHABI INTL , AE) observed 0200 UTC 22 April 2019
Temperature: 29.0°C (84°F)
Dewpoint: 10.0°C (50°F) [RH = 31%]
Pressure (altimeter): 29.68 inches Hg (1005.0 mb)
Winds: from the E (100 degrees) at 2 MPH (2 knots; 1.0 m/s)
Visibility: 6 or more miles (10+ km)
Ceiling: ceiling and visibility are OK
Clouds: unknown
Weather: no significant weather observed at this time

METAR text: OMAA 220100Z 28001KT CAVOK 29/11 Q1004 BECMG 16010KT
Conditions at: OMAA (ABU DHABI INTL , AE) observed 0100 UTC 22 April 2019
Temperature: 29.0°C (84°F)
Dewpoint: 11.0°C (52°F) [RH = 33%]
Pressure (altimeter): 29.65 inches Hg (1004.0 mb)
Winds: from the W (280 degrees) at 1 MPH (1 knots; 0.5 m/s)
Visibility: 6 or more miles (10+ km)
Ceiling: ceiling and visibility are OK
Clouds: unknown
Weather: no significant weather observed at this time

METAR text: OMAA 220000Z 15005KT CAVOK 30/10 Q1003 NOSIG
Conditions at: OMAA (ABU DHABI INTL , AE) observed 0000 UTC 22 April 2019
Temperature: 30.0°C (86°F)
Dewpoint: 10.0°C (50°F) [RH = 29%]
Pressure (altimeter): 29.62 inches Hg (1003.0 mb)
Winds: from the SSE (150 degrees) at 6 MPH (5 knots; 2.6 m/s)
Visibility: 6 or more miles (10+ km)
Ceiling: ceiling and visibility are OK
Clouds: unknown
Weather: no significant weather observed at this time

METAR text: OMAA 212300Z 11007KT CAVOK 30/11 Q1003 NOSIG
Conditions at: OMAA (ABU DHABI INTL , AE) observed 2300 UTC 21 April 2019
Temperature: 30.0°C (86°F)
Dewpoint: 11.0°C (52°F) [RH = 31%]
Pressure (altimeter): 29.62 inches Hg (1003.0 mb)
Winds: from the ESE (110 degrees) at 8 MPH (7 knots; 3.6 m/s)
Visibility: 6 or more miles (10+ km)
Ceiling: ceiling and visibility are OK
Clouds: unknown
Weather: no significant weather observed at this time

METAR text: OMAA 212200Z 09003KT CAVOK 30/10 Q1003 NOSIG
Conditions at: OMAA (ABU DHABI INTL , AE) observed 2200 UTC 21 April 2019
Temperature: 30.0°C (86°F)
Dewpoint: 10.0°C (50°F) [RH = 29%]
Pressure (altimeter): 29.62 inches Hg (1003.0 mb)
Winds: from the E (90 degrees) at 3 MPH (3 knots; 1.5 m/s)
Visibility: 6 or more miles (10+ km)
Ceiling: ceiling and visibility are OK
Clouds: unknown
Weather: no significant weather observed at this time

METAR text: OMAA 212100Z 10007KT CAVOK 31/11 Q1003 NOSIG
Conditions at: OMAA (ABU DHABI INTL , AE) observed 2100 UTC 21 April 2019
Temperature: 31.0°C (88°F)
Dewpoint: 11.0°C (52°F) [RH = 29%]
Pressure (altimeter): 29.62 inches Hg (1003.0 mb)
Winds: from the E (100 degrees) at 8 MPH (7 knots; 3.6 m/s)
Visibility: 6 or more miles (10+ km)
Ceiling: ceiling and visibility are OK
Clouds: unknown
Weather: no significant weather observed at this time

METAR text: OMAA 212000Z 07005KT CAVOK 31/11 Q1004 NOSIG
Conditions at: OMAA (ABU DHABI INTL , AE) observed 2000 UTC 21 April 2019
Temperature: 31.0°C (88°F)
Dewpoint: 11.0°C (52°F) [RH = 29%]
Pressure (altimeter): 29.65 inches Hg (1004.0 mb)
Winds: from the ENE (70 degrees) at 6 MPH (5 knots; 2.6 m/s)
Visibility: 6 or more miles (10+ km)
Ceiling: ceiling and visibility are OK
Clouds: unknown
Weather: no significant weather observed at this time

METAR text: OMAA 211900Z 05005KT 030V090 CAVOK 32/11 Q1005 NOSIG
Conditions at: OMAA (ABU DHABI INTL , AE) observed 1900 UTC 21 April 2019
Temperature: 32.0°C (90°F)
Dewpoint: 11.0°C (52°F) [RH = 28%]
Pressure (altimeter): 29.68 inches Hg (1005.0 mb)
Winds: from the NE (50 degrees) at 6 MPH (5 knots; 2.6 m/s)
Visibility: 6 or more miles (10+ km)
Ceiling: ceiling and visibility are OK
Clouds: unknown
Weather: no significant weather observed at this time

METAR text: OMAA 211800Z 06007KT 030V090 CAVOK 32/12 Q1005 NOSIG
Conditions at: OMAA (ABU DHABI INTL , AE) observed 1800 UTC 21 April 2019
Temperature: 32.0°C (90°F)
Dewpoint: 12.0°C (54°F) [RH = 30%]
Pressure (altimeter): 29.68 inches Hg (1005.0 mb)
Winds: from the ENE (60 degrees) at 8 MPH (7 knots; 3.6 m/s)
Visibility: 6 or more miles (10+ km)
Ceiling: ceiling and visibility are OK
Clouds: unknown
Weather: no significant weather observed at this time

METAR text: OMAA 211700Z 06009KT CAVOK 32/12 Q1005 NOSIG
Conditions at: OMAA (ABU DHABI INTL , AE) observed 1700 UTC 21 April 2019
Temperature: 32.0°C (90°F)
Dewpoint: 12.0°C (54°F) [RH = 30%]
Pressure (altimeter): 29.68 inches Hg (1005.0 mb)
Winds: from the ENE (60 degrees) at 10 MPH (9 knots; 4.6 m/s)
Visibility: 6 or more miles (10+ km)
Ceiling: ceiling and visibility are OK
Clouds: unknown
Weather: no significant weather observed at this time

METAR text: OMAA 211600Z 03008KT CAVOK 33/12 Q1004 NOSIG
Conditions at: OMAA (ABU DHABI INTL , AE) observed 1600 UTC 21 April 2019
Temperature: 33.0°C (91°F)
Dewpoint: 12.0°C (54°F) [RH = 28%]
Pressure (altimeter): 29.65 inches Hg (1004.0 mb)
Winds: from the NNE (30 degrees) at 9 MPH (8 knots; 4.1 m/s)
Visibility: 6 or more miles (10+ km)
Ceiling: ceiling and visibility are OK
Clouds: unknown
Weather: no significant weather observed at this time

METAR text: OMAA 211500Z 01011KT CAVOK 34/11 Q1003 NOSIG
Conditions at: OMAA (ABU DHABI INTL , AE) observed 1500 UTC 21 April 2019
Temperature: 34.0°C (93°F)
Dewpoint: 11.0°C (52°F) [RH = 25%]
Pressure (altimeter): 29.62 inches Hg (1003.0 mb)
Winds: from the N (10 degrees) at 13 MPH (11 knots; 5.7 m/s)
Visibility: 6 or more miles (10+ km)
Ceiling: ceiling and visibility are OK
Clouds: unknown
Weather: no significant weather observed at this time

METAR text: OMAA 211400Z 34014KT CAVOK 35/12 Q1003 NOSIG
Conditions at: OMAA (ABU DHABI INTL , AE) observed 1400 UTC 21 April 2019
Temperature: 35.0°C (95°F)
Dewpoint: 12.0°C (54°F) [RH = 25%]
Pressure (altimeter): 29.62 inches Hg (1003.0 mb)
Winds: from the NNW (340 degrees) at 16 MPH (14 knots; 7.2 m/s)
Visibility: 6 or more miles (10+ km)
Ceiling: ceiling and visibility are OK
Clouds: unknown
Weather: no significant weather observed at this time

METAR text: OMAA 211300Z 34014KT CAVOK 35/12 Q1003 NOSIG
Conditions at: OMAA (ABU DHABI INTL , AE) observed 1300 UTC 21 April 2019
Temperature: 35.0°C (95°F)
Dewpoint: 12.0°C (54°F) [RH = 25%]
Pressure (altimeter): 29.62 inches Hg (1003.0 mb)
Winds: from the NNW (340 degrees) at 16 MPH (14 knots; 7.2 m/s)
Visibility: 6 or more miles (10+ km)
Ceiling: ceiling and visibility are OK
Clouds: unknown
Weather: no significant weather observed at this time

METAR text: OMAA 211200Z 35012KT CAVOK 37/13 Q1003 NOSIG
Conditions at: OMAA (ABU DHABI INTL , AE) observed 1200 UTC 21 April 2019
Temperature: 37.0°C (99°F)
Dewpoint: 13.0°C (55°F) [RH = 24%]
Pressure (altimeter): 29.62 inches Hg (1003.0 mb)
Winds: from the N (350 degrees) at 14 MPH (12 knots; 6.2 m/s)
Visibility: 6 or more miles (10+ km)
Ceiling: ceiling and visibility are OK
Clouds: unknown
Weather: no significant weather observed at this time

METAR text: OMAA 211100Z 32013KT CAVOK 36/12 Q1004 NOSIG
Conditions at: OMAA (ABU DHABI INTL , AE) observed 1100 UTC 21 April 2019
Temperature: 36.0°C (97°F)
Dewpoint: 12.0°C (54°F) [RH = 24%]
Pressure (altimeter): 29.65 inches Hg (1004.0 mb)
Winds: from the NW (320 degrees) at 15 MPH (13 knots; 6.7 m/s)
Visibility: 6 or more miles (10+ km)
Ceiling: ceiling and visibility are OK
Clouds: unknown
Weather: no significant weather observed at this time

METAR text: OMAA 211000Z 31014KT CAVOK 36/13 Q1005 NOSIG
Conditions at: OMAA (ABU DHABI INTL , AE) observed 1000 UTC 21 April 2019
Temperature: 36.0°C (97°F)
Dewpoint: 13.0°C (55°F) [RH = 25%]
Pressure (altimeter): 29.68 inches Hg (1005.0 mb)
Winds: from the NW (310 degrees) at 16 MPH (14 knots; 7.2 m/s)
Visibility: 6 or more miles (10+ km)
Ceiling: ceiling and visibility are OK
Clouds: unknown
Weather: no significant weather observed at this time

METAR text: OMAA 210900Z 32013KT CAVOK 36/14 Q1005 NOSIG
Conditions at: OMAA (ABU DHABI INTL , AE) observed 0900 UTC 21 April 2019
Temperature: 36.0°C (97°F)
Dewpoint: 14.0°C (57°F) [RH = 27%]
Pressure (altimeter): 29.68 inches Hg (1005.0 mb)
Winds: from the NW (320 degrees) at 15 MPH (13 knots; 6.7 m/s)
Visibility: 6 or more miles (10+ km)
Ceiling: ceiling and visibility are OK
Clouds: unknown
Weather: no significant weather observed at this time

METAR text: OMAA 210806Z 31011KT CAVOK 40/09 Q1006 NOSIG
Conditions at: OMAA (ABU DHABI INTL , AE) observed 0806 UTC 21 April 2019
Temperature: 40.0°C (104°F)
Dewpoint: 9.0°C (48°F) [RH = 16%]
Pressure (altimeter): 29.70 inches Hg (1006.0 mb)
Winds: from the NW (310 degrees) at 13 MPH (11 knots; 5.7 m/s)
Visibility: 6 or more miles (10+ km)
Ceiling: ceiling and visibility are OK
Clouds: unknown
Weather: no significant weather observed at this time

METAR text: OMAA 210800Z 19009KT 130V250 CAVOK 39/10 Q1006 NOSIG
Conditions at: OMAA (ABU DHABI INTL , AE) observed 0800 UTC 21 April 2019
Temperature: 39.0°C (102°F)
Dewpoint: 10.0°C (50°F) [RH = 18%]
Pressure (altimeter): 29.70 inches Hg (1006.0 mb)
Winds: from the S (190 degrees) at 10 MPH (9 knots; 4.6 m/s)
Visibility: 6 or more miles (10+ km)
Ceiling: ceiling and visibility are OK
Clouds: unknown
Weather: no significant weather observed at this time

METAR text: OMAA 210700Z 19009KT 150V250 CAVOK 38/11 Q1006 NOSIG
Conditions at: OMAA (ABU DHABI INTL , AE) observed 0700 UTC 21 April 2019
Temperature: 38.0°C (100°F)
Dewpoint: 11.0°C (52°F) [RH = 20%]
Pressure (altimeter): 29.70 inches Hg (1006.0 mb)
Winds: from the S (190 degrees) at 10 MPH (9 knots; 4.6 m/s)
Visibility: 6 or more miles (10+ km)
Ceiling: ceiling and visibility are OK
Clouds: unknown
Weather: no significant weather observed at this time

METAR text: OMAA 210600Z 22009KT 190V270 CAVOK 35/11 Q1007 NOSIG
Conditions at: OMAA (ABU DHABI INTL , AE) observed 0600 UTC 21 April 2019
Temperature: 35.0°C (95°F)
Dewpoint: 11.0°C (52°F) [RH = 23%]
Pressure (altimeter): 29.73 inches Hg (1007.0 mb)
Winds: from the SW (220 degrees) at 10 MPH (9 knots; 4.6 m/s)
Visibility: 6 or more miles (10+ km)
Ceiling: ceiling and visibility are OK
Clouds: unknown
Weather: no significant weather observed at this time

METAR text: OMAA 210500Z 16009KT 140V250 CAVOK 33/10 Q1007 NOSIG
Conditions at: OMAA (ABU DHABI INTL , AE) observed 0500 UTC 21 April 2019
Temperature: 33.0°C (91°F)
Dewpoint: 10.0°C (50°F) [RH = 24%]
Pressure (altimeter): 29.73 inches Hg (1007.0 mb)
Winds: from the SSE (160 degrees) at 10 MPH (9 knots; 4.6 m/s)
Visibility: 6 or more miles (10+ km)
Ceiling: ceiling and visibility are OK
Clouds: unknown
Weather: no significant weather observed at this time

METAR text: OMAA 210400Z 16010KT CAVOK 31/09 Q1006 NOSIG
Conditions at: OMAA (ABU DHABI INTL , AE) observed 0400 UTC 21 April 2019
Temperature: 31.0°C (88°F)
Dewpoint: 9.0°C (48°F) [RH = 26%]
Pressure (altimeter): 29.70 inches Hg (1006.0 mb)
Winds: from the SSE (160 degrees) at 12 MPH (10 knots; 5.1 m/s)
Visibility: 6 or more miles (10+ km)
Ceiling: ceiling and visibility are OK
Clouds: unknown
Weather: no significant weather observed at this time

METAR text: OMAA 210300Z 15009KT CAVOK 30/09 Q1005 NOSIG
Conditions at: OMAA (ABU DHABI INTL , AE) observed 0300 UTC 21 April 2019
Temperature: 30.0°C (86°F)
Dewpoint: 9.0°C (48°F) [RH = 27%]
Pressure (altimeter): 29.68 inches Hg (1005.0 mb)
Winds: from the SSE (150 degrees) at 10 MPH (9 knots; 4.6 m/s)
Visibility: 6 or more miles (10+ km)
Ceiling: ceiling and visibility are OK
Clouds: unknown
Weather: no significant weather observed at this time

Forecast for: OMAA (ABU DHABI INTL , AE)
Text: TAF OMAA 221100Z 2212/2318 21011KT 8000 NSC
Forecast period: 1200 UTC 22 April 2019 to 1800 UTC 23 April 2019
Forecast type: FROM: standard forecast or significant change
Winds: from the SSW (210 degrees) at 13 MPH (11 knots; 5.7 m/s)
Visibility: 5 miles (8 km)
Ceiling: unknown
Clouds: missing
Weather: no significant weather forecast for this period
Text: BECMG 2212/2214 28012KT
Forecast period: 1200 UTC 22 April 2019 to 0600 UTC 23 April 2019
Forecast type: BECOMING: Conditions expected to become as follows by 1400 UTC 22 April 2019
Winds: from the W (280 degrees) at 14 MPH (12 knots; 6.2 m/s)
Visibility: 5 miles (8 km)
Ceiling: unknown
Clouds: missing
Weather: no significant weather forecast for this period
Text: BECMG 2306/2308 34017KT
Forecast period: 0600 to 1800 UTC 23 April 2019
Forecast type: BECOMING: Conditions expected to become as follows by 0800 UTC 23 April 2019
Winds: from the NNW (340 degrees) at 20 MPH (17 knots; 8.7 m/s)
Visibility: 5 miles (8 km)
Ceiling: unknown
Clouds: missing
Weather: no significant weather forecast for this period